AirNav   TITAN Aviation Fuels
 
 962 users online  

AZ16 Northern Cochise Community Hospital Heliport
Willcox, Arizona, USA

GOING TO WILLCOX?


FAA INFORMATION EFFECTIVE 08 SEPTEMBER 2022

Location

FAA Identifier: AZ16
Lat/Long: 32-15-52.3400N 109-50-16.4300W
32-15.872333N 109-50.273833W
32.2645389,-109.8378972
(estimated)
Elevation: 4174 ft. / 1272 m (estimated)
Variation: 12E (1985)
From city: 1 mile N of WILLCOX, AZ
Time zone: UTC -7 (year round; does not observe DST)
Zip code: 85643

Heliport Operations

Heliport use: Private use, MEDICAL.
Activation date: 07/1979
Control tower: no
ARTCC: ALBUQUERQUE CENTER
FSS: PRESCOTT FLIGHT SERVICE STATION
Attendance: CONTINUOUS
Wind indicator: yes
Segmented circle: no

Nearby radio navigation aids

VOR radial/distance  VOR name  Freq  Var
SSOr256/29.2SAN SIMON VORTAC115.4013E

Heliport Services

Runway Information

Helipad H1

Dimensions: 40 x 40 ft. / 12 x 12 m
40' X 40' CONC PAD WITHIN A 100' X 100' LNDG AREA.
Surface: concrete
Runway edge lights: low intensity
RECESSED PAD LGTS 60W PERIPHERAL AMBER 40W AND FLOODS LGTS ON FENCE 500W.
Latitude: 32-15.872333N
Longitude: 109-50.273833W
Elevation: 4174.0 ft.
Traffic pattern: leftleft

Heliport Ownership and Management from official FAA records

Ownership: Privately-owned
Owner: NORTHERN COCHISE COMM HOSP
901 REX ALLEN DRIVE
WILLCOX, AZ 85643
Phone 602-384-3541
Manager: BILL HOPKINS
901 W. REX ALLEN DRIVE
WILLCOX, AZ 85643
Phone 602-384-3541
ALSO 520-507-3255

Additional Remarks

FOR CD CTC ALBUQUERQUE ARTCC AT 505-856-4861.

Instrument Procedures

There are no published instrument procedures at AZ16.

Some nearby airports with instrument procedures:

P33 - Cochise County Airport (3 nm W)
KSAD - Safford Regional Airport (37 nm N)
KFHU - Sierra Vista Municipal Airport-Libby Army Airfield (48 nm SW)
KDUG - Bisbee Douglas International Airport (49 nm S)
KCFT - Greenlee County Airport (52 nm NE)
 
Loc | Ops | Rwys | IFR | FBO | Links
Com | Nav | Svcs | Stats | Notes
Area around AZ16 (Northern Cochise Community Hospital Heliport)
 
Road maps at: MapQuest Bing Google
 
Aerial photo
No photo
 
Sectional chart

 
Airport distance calculator
Flying to Northern Cochise Community Hospital Heliport? Find the distance to fly.

From to AZ16

Sunrise and sunset
Times for 02-Oct-2022
 Local
(UTC-7)
 Zulu
(UTC)
Morning civil twilight05:5112:51
Sunrise06:1513:15
Sunset18:0201:02
Evening civil twilight18:2701:27

Current date and time
Zulu (UTC)  02-Oct-2022 18:20:36
Local (UTC-7)  02-Oct-2022 11:20:36
 
METAR
KSAD 
37nm N 
021751Z AUTO 15008G24KT 10SM CLR 28/12 A3007 RMK AO2 SLP132 T02780117 10283 20178 58000 $
KFHU 
47nm SW 
021755Z AUTO 11007KT 10SM CLR 25/10 A3015 RMK AO2 SLP154 T02450104 10246 20132 50001 $
KALK 
50nm SW 
021756Z AUTO 06008KT 10SM CLR 24/11 A3015 RMK AO2 SLP126 T02440106 10244 20128 50000
TAF
NOTAMs
Click for the latest NOTAMs
NOTAMs are issued by the DoD/FAA and will open in a separate window not controlled by AirNav.

 

 
 

Would you like to see your business listed on this page?

 If your business provides an interesting product or service to pilots, flight crews, aircraft, or users of the Northern Cochise Community Hospital Heliport, you should consider listing it here.  To start the listing process, click on the button below
 
Add a business
 

Other Pages about Northern Cochise Community Hospital Heliport

Update a link
 
Copyright © AirNav, LLC. All rights reserved. Privacy Policy  Contact